Commodore Clipper — C6QQ3 — position and weather

sailwx.info

Track history (hours):
 
Tides and Currents Weather Stations Pressure Air Temp Water Temp Dewpoint Dewpoint Depression Visibility Wind Speed Wind Dir Waves Ship Positions

Commodore Clipper

Operator: Condor Marine Services

Last reported at 2017-Mar-23 11:34 UTC. Time now 2017-Mar-23 12:18 UTC.
Position N 50°15' W 001°31'.

Length 130 m; draft 5.2 m.

Type: Ship. MMSI: 308094000.

Date/timePositionNaut miles runAvg speedWind from/ knotsBaromVisibWave heightAir tempDewpointWater temp
2017-Mar-23 11:34N 50°15' W 001°31'1918.6
2017-Mar-23 10:33N 50°30' W 001°15'1616.3
2017-Mar-23 09:34N 50°45' W 001°05'4 3.8
2017-Mar-23 08:34N 50°49' W 001°06'0 0.0
2017-Mar-23 07:33N 50°49' W 001°06'0 0.0
2017-Mar-23 06:33N 50°49' W 001°06'6 6.4
2017-Mar-23 05:34N 50°43' W 001°02'3115.5
2017-Mar-23 03:33N 50°16' W 001°29'1414.1
2017-Mar-23 02:33N 50°06' W 001°43'1313.1
2017-Mar-23 01:34N 49°55' W 001°54'10 0.8
2017-Mar-22 14:16N 49°46' W 002°00'1115.0
2017-Mar-22 13:33N 49°54' W 001°49'1515.4
2017-Mar-22 12:33N 50°08' W 001°39'2216.1
2017-Mar-22 11:10N 50°26' W 001°19'1015.9
2017-Mar-22 10:34N 50°34' W 001°10'1313.0
2017-Mar-22 09:33N 50°47' W 001°06'2 2.2
2017-Mar-22 08:33N 50°49' W 001°06'0 0.0
2017-Mar-22 07:33N 50°49' W 001°06'0 0.0
2017-Mar-22 06:33N 50°49' W 001°06'7 6.5
2017-Mar-22 05:34N 50°43' W 001°03'1615.2
2017-Mar-22 04:32N 50°29' W 001°15'1313.5
2017-Mar-22 03:33N 50°18' W 001°26'1313.4
2017-Mar-22 02:33N 50°07' W 001°37'1413.9
2017-Mar-22 01:33N 49°55' W 001°50'27 2.7
2017-Mar-21 15:31N 49°33' W 002°12'1515.0
2017-Mar-21 14:31N 49°46' W 002°02'1414.5
2017-Mar-21 13:33N 49°58' W 001°51'1514.6
2017-Mar-21 12:33N 50°09' W 001°36'1515.0
2017-Mar-21 11:33N 50°21' W 001°20'1615.9
2017-Mar-21 10:34N 50°34' W 001°07'1313.2
2017-Mar-21 09:33N 50°47' W 001°07'2 1.6
2017-Mar-21 08:34N 50°49' W 001°06'0 0.0
2017-Mar-21 07:33N 50°49' W 001°06'0 0.0
2017-Mar-21 06:34N 50°49' W 001°06'7 6.6
2017-Mar-21 05:34N 50°42' W 001°03'1514.4
2017-Mar-21 04:32N 50°30' W 001°15'1313.1
2017-Mar-21 03:33N 50°19' W 001°26'1313.2
2017-Mar-21 02:34N 50°08' W 001°37'1413.7
2017-Mar-21 01:34N 49°56' W 001°48'10 0.9
2017-Mar-20 14:33N 49°48' W 001°58'1413.8
2017-Mar-20 13:34N 49°59' W 001°45'1313.5
2017-Mar-20 12:34N 50°10' W 001°33'1413.8
2017-Mar-20 11:33N 50°21' W 001°20'1414.1
2017-Mar-20 10:34N 50°33' W 001°09'1312.8
2017-Mar-20 09:34N 50°46' W 001°05'3 2.7
2017-Mar-20 08:34N 50°49' W 001°06'0 0.0
2017-Mar-20 07:34N 50°49' W 001°06'0 0.0
2017-Mar-20 06:34N 50°49' W 001°06'0 0.0
2017-Mar-20 05:34N 50°49' W 001°06'0 0.0
2017-Mar-20 04:34N 50°49' W 001°06'0 0.0
2017-Mar-20 03:34N 50°49' W 001°06'0 0.0
2017-Mar-20 02:34N 50°49' W 001°06'0 0.0
2017-Mar-20 01:34N 50°49' W 001°06'0 0.0
2017-Mar-20 00:34N 50°49' W 001°06'0 0.0
2017-Mar-19 23:34N 50°49' W 001°06'0 0.0
2017-Mar-19 22:34N 50°49' W 001°06'0 0.0
2017-Mar-19 21:34N 50°49' W 001°06'0 0.0
2017-Mar-19 20:34N 50°49' W 001°06'0 0.0
2017-Mar-19 19:34N 50°49' W 001°06'0 0.0
2017-Mar-19 18:34N 50°49' W 001°06'0 0.0
2017-Mar-19 17:34N 50°49' W 001°06'0 0.0
2017-Mar-19 16:34N 50°49' W 001°06'0 0.0
2017-Mar-19 15:34N 50°49' W 001°06'0 0.0
2017-Mar-19 14:34N 50°49' W 001°06'0 0.0
2017-Mar-19 13:34N 50°49' W 001°06'0 0.0
2017-Mar-19 12:33N 50°49' W 001°06'0 0.0
2017-Mar-19 11:33N 50°49' W 001°06'0 0.0
2017-Mar-19 10:34N 50°49' W 001°06'0 0.0
2017-Mar-19 09:34N 50°49' W 001°06'0 0.0
2017-Mar-19 08:34N 50°49' W 001°06'0 0.0
2017-Mar-19 07:34N 50°49' W 001°06'0 0.0
2017-Mar-19 06:34N 50°49' W 001°06'6 6.2
2017-Mar-19 05:34N 50°43' W 001°03'1514.2
2017-Mar-19 04:30N 50°29' W 001°12'1313.9
2017-Mar-19 03:33N 50°17' W 001°21'1414.2
2017-Mar-19 02:33N 50°06' W 001°35'1413.6
2017-Mar-19 01:34N 49°55' W 001°48'1817.0
2017-Mar-19 00:29N 49°40' W 002°04'11 1.1
2017-Mar-18 14:33N 49°51' W 001°58'1515.1
2017-Mar-18 13:34N 50°03' W 001°45'1413.6
2017-Mar-18 12:31N 50°14' W 001°31'1111.8
2017-Mar-18 11:33N 50°23' W 001°19'1312.7
2017-Mar-18 10:33N 50°33' W 001°08'1312.9
2017-Mar-18 09:34N 50°46' W 001°05'3 3.0
2017-Mar-18 08:34N 50°49' W 001°06'0 0.0
2017-Mar-18 07:34N 50°49' W 001°06'0 0.0
2017-Mar-18 06:34N 50°49' W 001°06'7 6.9
2017-Mar-18 05:34N 50°42' W 001°02'1110.8
2017-Mar-18 04:34N 50°33' W 001°11'12 9.6
2017-Mar-18 03:19N 50°22' W 001°20'810.5
2017-Mar-18 02:34N 50°17' W 001°28'1212.4
2017-Mar-18 01:34N 50°06' W 001°37'1413.6
2017-Mar-18 00:33N 49°55' W 001°51'11 1.1
2017-Mar-17 14:10N 49°46' W 002°01'1017.2
2017-Mar-17 13:33N 49°54' W 001°52'1616.0
2017-Mar-17 12:33N 50°07' W 001°37'1915.3
2017-Mar-17 11:20N 50°23' W 001°20'1114.9
2017-Mar-17 10:34N 50°32' W 001°09'1313.5
2017-Mar-17 09:34N 50°45' W 001°05'4 3.6
2017-Mar-17 08:34N 50°49' W 001°06'0 0.0
2017-Mar-17 07:34N 50°49' W 001°06'0 0.0
2017-Mar-17 06:34N 50°49' W 001°06'7 7.2
2017-Mar-17 05:34N 50°42' W 001°02'1313.0
2017-Mar-17 04:33N 50°31' W 001°14'1410.6
2017-Mar-17 03:16N 50°23' W 001°31'912.2
2017-Mar-17 02:33N 50°15' W 001°36'1312.5
2017-Mar-17 01:34N 50°03' W 001°43'1413.6
2017-Mar-17 00:34N 49°52' W 001°54'2114.8
2017-Mar-16 23:06N 49°33' W 002°10'815.5
2017-Mar-16 22:34N 49°25' W 002°15'11 1.7
2017-Mar-16 16:04N 49°27' W 002°32'4 7.7
2017-Mar-16 15:31N 49°27' W 002°25'2220.0
2017-Mar-16 14:25N 49°43' W 002°02'1619.2
2017-Mar-16 13:34N 49°57' W 001°50'1717.0
2017-Mar-16 12:33N 50°11' W 001°34'1615.9
2017-Mar-16 11:33N 50°23' W 001°18'1515.2
2017-Mar-16 10:33N 50°36' W 001°05'1111.2
2017-Mar-16 09:34N 50°47' W 001°06'2 1.8
2017-Mar-16 08:33N 50°49' W 001°06'0 0.0
2017-Mar-16 07:34N 50°49' W 001°06'0 0.0
2017-Mar-16 06:33N 50°49' W 001°06'7 7.2
2017-Mar-16 05:33N 50°42' W 001°01'1111.0
2017-Mar-16 04:34N 50°33' W 001°10'9 9.2
2017-Mar-16 03:33N 50°25' W 001°19'10 9.9
2017-Mar-16 02:33N 50°17' W 001°27'10 9.9
2017-Mar-16 01:34N 50°09' W 001°36'1111.5
2017-Mar-16 00:34N 49°60' W 001°46'1413.8
2017-Mar-15 23:34N 49°48' W 001°59'1919.2
2017-Mar-15 22:34N 49°31' W 002°11'1918.8
2017-Mar-15 21:33N 49°13' W 002°21'9 3.9
2017-Mar-15 19:13N 49°11' W 002°07'6 9.2
2017-Mar-15 18:34N 49°10' W 002°16'1616.2
2017-Mar-15 17:33N 49°24' W 002°28'4 3.0
2017-Mar-15 16:18N 49°27' W 002°32'3 3.9
2017-Mar-15 15:34N 49°25' W 002°29'1918.7
2017-Mar-15 14:32N 49°38' W 002°07'2020.7
2017-Mar-15 13:34N 49°56' W 001°51'1817.9
2017-Mar-15 12:33N 50°09' W 001°33'1816.6
2017-Mar-15 11:29N 50°25' W 001°19'1415.4
2017-Mar-15 10:34N 50°37' W 001°07'1211.8
2017-Mar-15 09:34N 50°49' W 001°06'0 0.4
2017-Mar-15 08:34N 50°49' W 001°06'0 0.0
2017-Mar-15 07:33N 50°49' W 001°06'0 0.0
2017-Mar-15 06:33N 50°49' W 001°06'8 8.1
2017-Mar-15 05:33N 50°41' W 001°00'1212.1
2017-Mar-15 04:33N 50°32' W 001°12'10 9.7
2017-Mar-15 03:33N 50°25' W 001°22'10 9.9
2017-Mar-15 02:34N 50°16' W 001°30'9 9.5
2017-Mar-15 01:34N 50°08' W 001°37'1010.4
2017-Mar-15 00:33N 49°59' W 001°46'2016.8
2017-Mar-14 23:23N 49°43' W 002°03'1518.8
2017-Mar-14 22:33N 49°29' W 002°13'1918.0
2017-Mar-14 21:31N 49°10' W 002°18'1 0.5
2017-Mar-14 18:33N 49°10' W 002°16'24 6.1
2017-Mar-14 14:33N 49°34' W 002°06'2020.0
2017-Mar-14 13:34N 49°51' W 001°51'1818.0
2017-Mar-14 12:34N 50°06' W 001°34'1816.7
2017-Mar-14 11:28N 50°22' W 001°22'1415.2
2017-Mar-14 10:33N 50°34' W 001°10'1313.4
2017-Mar-14 09:33N 50°47' W 001°06'2 2.0
2017-Mar-14 08:34N 50°49' W 001°06'0 0.0
2017-Mar-14 07:33N 50°49' W 001°06'0 0.0
2017-Mar-14 06:33N 50°49' W 001°06'7 7.5
2017-Mar-14 05:34N 50°42' W 001°01'1312.9
2017-Mar-14 04:34N 50°30' W 001°09'1010.3
2017-Mar-14 03:33N 50°23' W 001°20'1010.2
2017-Mar-14 02:33N 50°15' W 001°31'1211.1
2017-Mar-14 01:29N 50°06' W 001°43'1515.5
2017-Mar-14 00:31N 49°54' W 001°57'1816.0
2017-Mar-13 23:25N 49°38' W 002°07'1917.9
2017-Mar-13 22:21N 49°20' W 002°18'1114.2
2017-Mar-13 21:33N 49°10' W 002°11'20 3.1
2017-Mar-13 15:19N 49°27' W 002°24'1113.5
2017-Mar-13 14:32N 49°33' W 002°10'1818.1
2017-Mar-13 13:33N 49°50' W 001°59'1818.4
2017-Mar-13 12:33N 50°05' W 001°43'  
Track history (hours):
 
Tides and Currents Weather Stations Pressure Air Temp Water Temp Dewpoint Dewpoint Depression Visibility Wind Speed Wind Dir Waves Ship Positions

Commodore Clipper

Operator: Condor Marine Services

Last reported at 2017-Mar-23 11:34 UTC. Time now 2017-Mar-23 12:18 UTC.
Position N 50°15' W 001°31'.

Length 130 m; draft 5.2 m.

Type: Ship. MMSI: 308094000.

Date/timePositionNaut miles runAvg speedWind from/ knotsBaromVisibWave heightAir tempDewpointWater temp
2017-Mar-23 11:34N 50°15' W 001°31'1918.6
2017-Mar-23 10:33N 50°30' W 001°15'1616.3
2017-Mar-23 09:34N 50°45' W 001°05'4 3.8
2017-Mar-23 08:34N 50°49' W 001°06'0 0.0
2017-Mar-23 07:33N 50°49' W 001°06'0 0.0
2017-Mar-23 06:33N 50°49' W 001°06'6 6.4
2017-Mar-23 05:34N 50°43' W 001°02'3115.5
2017-Mar-23 03:33N 50°16' W 001°29'1414.1
2017-Mar-23 02:33N 50°06' W 001°43'1313.1
2017-Mar-23 01:34N 49°55' W 001°54'10 0.8
2017-Mar-22 14:16N 49°46' W 002°00'1115.0
2017-Mar-22 13:33N 49°54' W 001°49'1515.4
2017-Mar-22 12:33N 50°08' W 001°39'2216.1
2017-Mar-22 11:10N 50°26' W 001°19'1015.9
2017-Mar-22 10:34N 50°34' W 001°10'1313.0
2017-Mar-22 09:33N 50°47' W 001°06'2 2.2
2017-Mar-22 08:33N 50°49' W 001°06'0 0.0
2017-Mar-22 07:33N 50°49' W 001°06'0 0.0
2017-Mar-22 06:33N 50°49' W 001°06'7 6.5
2017-Mar-22 05:34N 50°43' W 001°03'1615.2
2017-Mar-22 04:32N 50°29' W 001°15'1313.5
2017-Mar-22 03:33N 50°18' W 001°26'1313.4
2017-Mar-22 02:33N 50°07' W 001°37'1413.9
2017-Mar-22 01:33N 49°55' W 001°50'27 2.7
2017-Mar-21 15:31N 49°33' W 002°12'1515.0
2017-Mar-21 14:31N 49°46' W 002°02'1414.5
2017-Mar-21 13:33N 49°58' W 001°51'1514.6
2017-Mar-21 12:33N 50°09' W 001°36'1515.0
2017-Mar-21 11:33N 50°21' W 001°20'1615.9
2017-Mar-21 10:34N 50°34' W 001°07'1313.2
2017-Mar-21 09:33N 50°47' W 001°07'2 1.6
2017-Mar-21 08:34N 50°49' W 001°06'0 0.0
2017-Mar-21 07:33N 50°49' W 001°06'0 0.0
2017-Mar-21 06:34N 50°49' W 001°06'7 6.6
2017-Mar-21 05:34N 50°42' W 001°03'1514.4
2017-Mar-21 04:32N 50°30' W 001°15'1313.1
2017-Mar-21 03:33N 50°19' W 001°26'1313.2
2017-Mar-21 02:34N 50°08' W 001°37'1413.7
2017-Mar-21 01:34N 49°56' W 001°48'10 0.9
2017-Mar-20 14:33N 49°48' W 001°58'1413.8
2017-Mar-20 13:34N 49°59' W 001°45'1313.5
2017-Mar-20 12:34N 50°10' W 001°33'1413.8
2017-Mar-20 11:33N 50°21' W 001°20'1414.1
2017-Mar-20 10:34N 50°33' W 001°09'1312.8
2017-Mar-20 09:34N 50°46' W 001°05'3 2.7
2017-Mar-20 08:34N 50°49' W 001°06'0 0.0
2017-Mar-20 07:34N 50°49' W 001°06'0 0.0
2017-Mar-20 06:34N 50°49' W 001°06'0 0.0
2017-Mar-20 05:34N 50°49' W 001°06'0 0.0
2017-Mar-20 04:34N 50°49' W 001°06'0 0.0
2017-Mar-20 03:34N 50°49' W 001°06'0 0.0
2017-Mar-20 02:34N 50°49' W 001°06'0 0.0
2017-Mar-20 01:34N 50°49' W 001°06'0 0.0
2017-Mar-20 00:34N 50°49' W 001°06'0 0.0
2017-Mar-19 23:34N 50°49' W 001°06'0 0.0
2017-Mar-19 22:34N 50°49' W 001°06'0 0.0
2017-Mar-19 21:34N 50°49' W 001°06'0 0.0
2017-Mar-19 20:34N 50°49' W 001°06'0 0.0
2017-Mar-19 19:34N 50°49' W 001°06'0 0.0
2017-Mar-19 18:34N 50°49' W 001°06'0 0.0
2017-Mar-19 17:34N 50°49' W 001°06'0 0.0
2017-Mar-19 16:34N 50°49' W 001°06'0 0.0
2017-Mar-19 15:34N 50°49' W 001°06'0 0.0
2017-Mar-19 14:34N 50°49' W 001°06'0 0.0
2017-Mar-19 13:34N 50°49' W 001°06'0 0.0
2017-Mar-19 12:33N 50°49' W 001°06'0 0.0
2017-Mar-19 11:33N 50°49' W 001°06'0 0.0
2017-Mar-19 10:34N 50°49' W 001°06'0 0.0
2017-Mar-19 09:34N 50°49' W 001°06'0 0.0
2017-Mar-19 08:34N 50°49' W 001°06'0 0.0
2017-Mar-19 07:34N 50°49' W 001°06'0 0.0
2017-Mar-19 06:34N 50°49' W 001°06'6 6.2
2017-Mar-19 05:34N 50°43' W 001°03'1514.2
2017-Mar-19 04:30N 50°29' W 001°12'1313.9
2017-Mar-19 03:33N 50°17' W 001°21'1414.2
2017-Mar-19 02:33N 50°06' W 001°35'1413.6
2017-Mar-19 01:34N 49°55' W 001°48'1817.0
2017-Mar-19 00:29N 49°40' W 002°04'11 1.1
2017-Mar-18 14:33N 49°51' W 001°58'1515.1
2017-Mar-18 13:34N 50°03' W 001°45'1413.6
2017-Mar-18 12:31N 50°14' W 001°31'1111.8
2017-Mar-18 11:33N 50°23' W 001°19'1312.7
2017-Mar-18 10:33N 50°33' W 001°08'1312.9
2017-Mar-18 09:34N 50°46' W 001°05'3 3.0
2017-Mar-18 08:34N 50°49' W 001°06'0 0.0
2017-Mar-18 07:34N 50°49' W 001°06'0 0.0
2017-Mar-18 06:34N 50°49' W 001°06'7 6.9
2017-Mar-18 05:34N 50°42' W 001°02'1110.8
2017-Mar-18 04:34N 50°33' W 001°11'12 9.6
2017-Mar-18 03:19N 50°22' W 001°20'810.5
2017-Mar-18 02:34N 50°17' W 001°28'1212.4
2017-Mar-18 01:34N 50°06' W 001°37'1413.6
2017-Mar-18 00:33N 49°55' W 001°51'11 1.1
2017-Mar-17 14:10N 49°46' W 002°01'1017.2
2017-Mar-17 13:33N 49°54' W 001°52'1616.0
2017-Mar-17 12:33N 50°07' W 001°37'1915.3
2017-Mar-17 11:20N 50°23' W 001°20'1114.9
2017-Mar-17 10:34N 50°32' W 001°09'1313.5
2017-Mar-17 09:34N 50°45' W 001°05'4 3.6
2017-Mar-17 08:34N 50°49' W 001°06'0 0.0
2017-Mar-17 07:34N 50°49' W 001°06'0 0.0
2017-Mar-17 06:34N 50°49' W 001°06'7 7.2
2017-Mar-17 05:34N 50°42' W 001°02'1313.0
2017-Mar-17 04:33N 50°31' W 001°14'1410.6
2017-Mar-17 03:16N 50°23' W 001°31'912.2
2017-Mar-17 02:33N 50°15' W 001°36'1312.5
2017-Mar-17 01:34N 50°03' W 001°43'1413.6
2017-Mar-17 00:34N 49°52' W 001°54'2114.8
2017-Mar-16 23:06N 49°33' W 002°10'815.5
2017-Mar-16 22:34N 49°25' W 002°15'11 1.7
2017-Mar-16 16:04N 49°27' W 002°32'4 7.7
2017-Mar-16 15:31N 49°27' W 002°25'2220.0
2017-Mar-16 14:25N 49°43' W 002°02'1619.2
2017-Mar-16 13:34N 49°57' W 001°50'1717.0
2017-Mar-16 12:33N 50°11' W 001°34'1615.9
2017-Mar-16 11:33N 50°23' W 001°18'1515.2
2017-Mar-16 10:33N 50°36' W 001°05'1111.2
2017-Mar-16 09:34N 50°47' W 001°06'2 1.8
2017-Mar-16 08:33N 50°49' W 001°06'0 0.0
2017-Mar-16 07:34N 50°49' W 001°06'0 0.0
2017-Mar-16 06:33N 50°49' W 001°06'7 7.2
2017-Mar-16 05:33N 50°42' W 001°01'1111.0
2017-Mar-16 04:34N 50°33' W 001°10'9 9.2
2017-Mar-16 03:33N 50°25' W 001°19'10 9.9
2017-Mar-16 02:33N 50°17' W 001°27'10 9.9
2017-Mar-16 01:34N 50°09' W 001°36'1111.5
2017-Mar-16 00:34N 49°60' W 001°46'1413.8
2017-Mar-15 23:34N 49°48' W 001°59'1919.2
2017-Mar-15 22:34N 49°31' W 002°11'1918.8
2017-Mar-15 21:33N 49°13' W 002°21'9 3.9
2017-Mar-15 19:13N 49°11' W 002°07'6 9.2
2017-Mar-15 18:34N 49°10' W 002°16'1616.2
2017-Mar-15 17:33N 49°24' W 002°28'4 3.0
2017-Mar-15 16:18N 49°27' W 002°32'3 3.9
2017-Mar-15 15:34N 49°25' W 002°29'1918.7
2017-Mar-15 14:32N 49°38' W 002°07'2020.7
2017-Mar-15 13:34N 49°56' W 001°51'1817.9
2017-Mar-15 12:33N 50°09' W 001°33'1816.6
2017-Mar-15 11:29N 50°25' W 001°19'1415.4
2017-Mar-15 10:34N 50°37' W 001°07'1211.8
2017-Mar-15 09:34N 50°49' W 001°06'0 0.4
2017-Mar-15 08:34N 50°49' W 001°06'0 0.0
2017-Mar-15 07:33N 50°49' W 001°06'0 0.0
2017-Mar-15 06:33N 50°49' W 001°06'8 8.1
2017-Mar-15 05:33N 50°41' W 001°00'1212.1
2017-Mar-15 04:33N 50°32' W 001°12'10 9.7
2017-Mar-15 03:33N 50°25' W 001°22'10 9.9
2017-Mar-15 02:34N 50°16' W 001°30'9 9.5
2017-Mar-15 01:34N 50°08' W 001°37'1010.4
2017-Mar-15 00:33N 49°59' W 001°46'2016.8
2017-Mar-14 23:23N 49°43' W 002°03'1518.8
2017-Mar-14 22:33N 49°29' W 002°13'1918.0
2017-Mar-14 21:31N 49°10' W 002°18'1 0.5
2017-Mar-14 18:33N 49°10' W 002°16'24 6.1
2017-Mar-14 14:33N 49°34' W 002°06'2020.0
2017-Mar-14 13:34N 49°51' W 001°51'1818.0
2017-Mar-14 12:34N 50°06' W 001°34'1816.7
2017-Mar-14 11:28N 50°22' W 001°22'1415.2
2017-Mar-14 10:33N 50°34' W 001°10'1313.4
2017-Mar-14 09:33N 50°47' W 001°06'2 2.0
2017-Mar-14 08:34N 50°49' W 001°06'0 0.0
2017-Mar-14 07:33N 50°49' W 001°06'0 0.0
2017-Mar-14 06:33N 50°49' W 001°06'7 7.5
2017-Mar-14 05:34N 50°42' W 001°01'1312.9
2017-Mar-14 04:34N 50°30' W 001°09'1010.3
2017-Mar-14 03:33N 50°23' W 001°20'1010.2
2017-Mar-14 02:33N 50°15' W 001°31'1211.1
2017-Mar-14 01:29N 50°06' W 001°43'1515.5
2017-Mar-14 00:31N 49°54' W 001°57'1816.0
2017-Mar-13 23:25N 49°38' W 002°07'1917.9
2017-Mar-13 22:21N 49°20' W 002°18'1114.2
2017-Mar-13 21:33N 49°10' W 002°11'20 3.1
2017-Mar-13 15:19N 49°27' W 002°24'1113.5
2017-Mar-13 14:32N 49°33' W 002°10'1818.1
2017-Mar-13 13:33N 49°50' W 001°59'1818.4
2017-Mar-13 12:33N 50°05' W 001°43'  

Dump ship's entire track history